Weather History for Fort Payne, AL

Change the Weather History Date:

Tuesday, May 14, 2013

  Actual Average (KRMG) Record (KRMG)
Temperature  
Mean Temperature 61 °F 68 °F  
Max Temperature 80 °F 80 °F 91 °F (1998)
Min Temperature 42 °F 55 °F 42 °F (2013)
Degree Days  
Heating Degree Days 4    
Cooling Degree Days 0 4  
Month to date cooling degree days 36  
Year to date cooling degree days 69  
Growing Degree Days 11 (Base 50)    
Moisture  
Dew Point 47 °F    
Average Humidity 63    
Maximum Humidity 93    
Minimum Humidity 28    
Precipitation  
Precipitation 0.06 in 0.16 in 0.09 in (1997)
Month to date precipitation 2.03  
Year to date precipitation 20.72  
Sea Level Pressure  
Sea Level Pressure 30.18 in    
Wind  
Wind Speed 2 mph (SW)    
Max Wind Speed 15 mph    
Max Gust Speed 22 mph    
Visibility 10 miles    
Events      
T = Trace of Precipitation, MM = Missing Value Source: NWS Daily Summary

Daily Weather History Graph

Daily Weather History Graph

Search for Another Location

Airport:

Trip Planner

Search our weather history database for the weather conditions in past years. The results will help you decide how hot, cold, wet, or windy it might be!

Date:

Astronomy

May. 14, 2013 Rise Set
Actual Time 5:41 AM CDT 7:37 PM CDT
Civil Twilight 5:13 AM CDT 8:05 PM CDT
Nautical Twilight 4:39 AM CDT 8:39 PM CDT
Astronomical Twilight 4:03 AM CDT 9:15 PM CDT
Moon 9:19 AM CDT (5/14) 11:26 PM CDT (5/14)
Length of Visible Light 14h 52m
Length of Day
13h 56m
Waxing Crescent, 19% of the Moon is Illuminated
May 14
Waxing Crescent
May 17
First Quarter
May 24
Full
May 31
Last Quarter
Jun 8
New

Hourly Weather History & Observations

Time (CDT) Temp. Dew Point Humidity Pressure Visibility Wind Dir Wind Speed Gust Speed Precip Events Conditions
12:15 AM 46.4 °F 42.8 °F 87% 30.21 in 10.0 mi Calm Calm - N/A   Clear
12:35 AM 44.6 °F 42.8 °F 93% 30.21 in 10.0 mi Calm Calm - N/A   Clear
12:55 AM 44.6 °F 42.8 °F 93% 30.21 in 10.0 mi Calm Calm - N/A   Clear
1:15 AM 44.6 °F 41.0 °F 87% 30.21 in 10.0 mi Calm Calm - N/A   Clear
1:35 AM 44.6 °F 42.8 °F 93% 30.21 in 10.0 mi Calm Calm - N/A   Clear
1:55 AM 44.6 °F 41.0 °F 87% 30.21 in 10.0 mi Calm Calm - N/A   Clear
2:15 AM 42.8 °F 41.0 °F 93% 30.20 in 10.0 mi Calm Calm - N/A   Clear
2:35 AM 42.8 °F 41.0 °F 93% 30.20 in 10.0 mi Calm Calm - N/A   Clear
2:55 AM 42.8 °F 41.0 °F 93% 30.20 in 10.0 mi Calm Calm - N/A   Clear
3:15 AM 42.8 °F 41.0 °F 93% 30.20 in 10.0 mi Calm Calm - N/A   Clear
3:35 AM 42.8 °F 41.0 °F 93% 30.20 in 10.0 mi Calm Calm - N/A   Clear
3:55 AM 42.8 °F 41.0 °F 93% 30.20 in 10.0 mi Calm Calm - N/A   Clear
4:15 AM 42.8 °F 41.0 °F 93% 30.20 in 10.0 mi Calm Calm - N/A   Clear
4:35 AM 42.8 °F 41.0 °F 93% 30.20 in 10.0 mi Calm Calm - N/A   Clear
4:55 AM 42.8 °F 41.0 °F 93% 30.21 in 10.0 mi Calm Calm - N/A   Clear
5:15 AM 42.8 °F 41.0 °F 93% 30.21 in 10.0 mi Calm Calm - N/A   Clear
5:35 AM 42.8 °F 41.0 °F 93% 30.21 in 10.0 mi Calm Calm - N/A   Clear
5:55 AM 42.8 °F 41.0 °F 93% 30.22 in 10.0 mi Calm Calm - N/A   Clear
6:15 AM 42.8 °F 41.0 °F 93% 30.23 in 10.0 mi Calm Calm - N/A   Clear
6:35 AM 42.8 °F 41.0 °F 93% 30.24 in 10.0 mi Calm Calm - N/A   Clear
6:55 AM 44.6 °F 42.8 °F 93% 30.24 in 10.0 mi Calm Calm - N/A   Clear
7:15 AM 46.4 °F 44.6 °F 93% 30.24 in 10.0 mi Calm Calm - N/A   Clear
7:35 AM 50.0 °F 44.6 °F 82% 30.24 in 10.0 mi Calm Calm - N/A   Clear
7:55 AM 51.8 °F 44.6 °F 76% 30.24 in 10.0 mi Calm Calm - N/A   Clear
8:15 AM 55.4 °F 44.6 °F 67% 30.24 in 10.0 mi Calm Calm - N/A   Clear
8:35 AM 59.0 °F 44.6 °F 59% 30.24 in 10.0 mi Calm Calm - N/A   Clear
8:55 AM 60.8 °F 46.4 °F 59% 30.24 in 10.0 mi Calm Calm - N/A   Clear
9:15 AM 62.6 °F 46.4 °F 55% 30.24 in 10.0 mi Calm Calm - N/A   Clear
9:35 AM 64.4 °F 46.4 °F 52% 30.24 in 10.0 mi Calm Calm - N/A   Clear
9:55 AM 68.0 °F 46.4 °F 46% 30.24 in 10.0 mi Calm Calm - N/A   Clear
10:15 AM 68.0 °F 44.6 °F 43% 30.24 in 10.0 mi WSW 11.5 mph - N/A   Clear
10:35 AM 69.8 °F 44.6 °F 40% 30.24 in 10.0 mi SW 11.5 mph - 0.01 in   Clear
10:55 AM 69.8 °F 44.6 °F 40% 30.23 in 10.0 mi Calm Calm - 0.01 in   Clear
11:15 AM 71.6 °F 46.4 °F 41% 30.23 in 10.0 mi Calm Calm - N/A   Clear
11:35 AM 71.6 °F 46.4 °F 41% 30.23 in 10.0 mi South 3.5 mph - N/A   Clear
11:55 AM 71.6 °F 48.2 °F 43% 30.22 in 10.0 mi SSW 10.4 mph - N/A   Clear
12:15 PM 73.4 °F 48.2 °F 41% 30.21 in 10.0 mi SSW 10.4 mph - N/A   Clear
12:35 PM 73.4 °F 48.2 °F 41% 30.21 in 10.0 mi WSW 10.4 mph - N/A   Clear
12:55 PM 73.4 °F 48.2 °F 41% 30.20 in 10.0 mi Calm Calm - N/A   Clear
1:15 PM 77.0 °F 46.4 °F 34% 30.18 in 10.0 mi SW 9.2 mph - N/A   Clear
1:35 PM 77.0 °F 50.0 °F 39% 30.18 in 10.0 mi Calm Calm - N/A   Clear
1:55 PM 77.0 °F 48.2 °F 36% 30.17 in 10.0 mi South 4.6 mph 16.1 mph N/A   Clear
2:15 PM 78.8 °F 46.4 °F 32% 30.16 in 10.0 mi WSW 8.1 mph - N/A   Clear
2:35 PM 78.8 °F 46.4 °F 32% 30.15 in 10.0 mi Calm Calm - 0.05 in   Clear
2:55 PM 78.8 °F 46.4 °F 32% 30.14 in 10.0 mi West 10.4 mph 16.1 mph 0.05 in   Clear
3:15 PM 80.6 °F 46.4 °F 30% 30.13 in 10.0 mi West 11.5 mph 19.6 mph N/A   Clear
3:35 PM 80.6 °F 46.4 °F 30% 30.12 in 10.0 mi WSW 11.5 mph 17.3 mph N/A   Clear
3:55 PM 80.6 °F 44.6 °F 28% 30.12 in 10.0 mi SW 9.2 mph - N/A   Clear
4:15 PM 80.6 °F 46.4 °F 30% 30.12 in 10.0 mi SW 15.0 mph 19.6 mph N/A   Clear
4:35 PM 80.6 °F 46.4 °F 30% 30.12 in 10.0 mi WSW 12.7 mph 21.9 mph N/A   Clear
4:55 PM 80.6 °F 46.4 °F 30% 30.11 in 10.0 mi WSW 10.4 mph 18.4 mph N/A   Clear
5:15 PM 80.6 °F 46.4 °F 30% 30.11 in 10.0 mi SW 13.8 mph 17.3 mph N/A   Clear
5:35 PM 78.8 °F 46.4 °F 32% 30.11 in 10.0 mi SW 10.4 mph 18.4 mph N/A   Clear
5:55 PM 78.8 °F 48.2 °F 34% 30.10 in 10.0 mi WSW 13.8 mph 19.6 mph N/A   Clear
6:15 PM 78.8 °F 50.0 °F 36% 30.10 in 10.0 mi WSW 9.2 mph 17.3 mph N/A   Clear
6:35 PM 77.0 °F 50.0 °F 39% 30.10 in 10.0 mi Calm Calm - N/A   Clear
6:55 PM 77.0 °F 51.8 °F 41% 30.10 in 10.0 mi Calm Calm - N/A   Clear
7:15 PM 73.4 °F 51.8 °F 47% 30.10 in 10.0 mi Calm Calm - N/A   Clear
7:35 PM 71.6 °F 51.8 °F 50% 30.10 in 10.0 mi Calm Calm - N/A   Clear
7:55 PM 69.8 °F 53.6 °F 56% 30.10 in 10.0 mi Calm Calm - N/A   Clear
8:15 PM 68.0 °F 53.6 °F 60% 30.11 in 10.0 mi Calm Calm - N/A   Clear
8:35 PM 66.2 °F 55.4 °F 68% 30.12 in 10.0 mi Calm Calm - N/A   Clear
8:55 PM 64.4 °F 55.4 °F 73% 30.12 in 7.0 mi Calm Calm - N/A   Clear
9:15 PM 62.6 °F 55.4 °F 77% 30.12 in 10.0 mi Calm Calm - N/A   Clear
9:55 PM 60.8 °F 55.4 °F 82% 30.13 in 10.0 mi Calm Calm - N/A   Clear
10:15 PM 60.8 °F 53.6 °F 77% 30.13 in 10.0 mi Calm Calm - N/A   Clear
10:35 PM 59.0 °F 53.6 °F 82% 30.13 in 10.0 mi Calm Calm - N/A   Clear
10:55 PM 59.0 °F 53.6 °F 82% 30.13 in 10.0 mi Calm Calm - N/A   Clear
11:15 PM 59.0 °F 53.6 °F 82% 30.13 in 10.0 mi Calm Calm - N/A   Clear
11:35 PM 59.0 °F 53.6 °F 82% 30.13 in 10.0 mi Calm Calm - N/A   Clear
11:55 PM 57.2 °F 53.6 °F 88% 30.13 in 10.0 mi Calm Calm - N/A   Clear